Time;durP1;ratioP1;P1;durP2;ratioP2;P2;SDS_P1;SDS_P2;PMS_P1;PMS_P2;Temp;Humidity;BMP_temperature;BMP_pressure;BME280_temperature;BME280_humidity;BME280_pressure;Samples;Min_cycle;Max_cycle;Signal;HPM_P1;HPM_P2
2022/05/10 00:02:05;;;;;;;1.50;0.40;;;13.20;99.90;;;;;;5057062;28;20219;-91
2022/05/10 00:04:37;;;;;;;0.93;0.50;;;13.10;99.90;;;;;;5056719;28;20243;-91
2022/05/10 00:07:15;;;;;;;1.90;0.60;;;13.10;99.90;;;;;;5058309;28;20244;-92
2022/05/10 00:09:51;;;;;;;1.27;0.70;;;13.10;99.90;;;;;;5055771;28;20204;-91
2022/05/10 00:12:26;;;;;;;0.93;0.40;;;13.10;99.90;;;;;;5058175;28;20217;-89
2022/05/10 00:14:58;;;;;;;0.50;0.50;;;13.10;99.90;;;;;;5043493;28;20204;-91
2022/05/10 00:17:34;;;;;;;0.60;0.50;;;13.10;99.90;;;;;;5040540;28;20676;-92
2022/05/10 00:20:06;;;;;;;1.13;0.50;;;13.20;99.90;;;;;;5040703;28;20730;-92
2022/05/10 00:22:40;;;;;;;1.50;0.60;;;13.00;99.90;;;;;;5040784;28;20205;-91
2022/05/10 00:25:14;;;;;;;4.10;0.73;;;12.80;99.90;;;;;;5039880;28;20221;-92
2022/05/10 00:27:46;;;;;;;1.60;0.70;;;12.60;99.90;;;;;;5039909;28;20236;-91
2022/05/10 00:30:17;;;;;;;0.57;0.57;;;12.40;99.90;;;;;;5045340;28;20217;-91
2022/05/10 00:32:48;;;;;;;1.63;0.63;;;12.20;99.90;;;;;;5040076;28;20695;-91
2022/05/10 00:35:22;;;;;;;2.10;0.70;;;12.00;99.90;;;;;;5044264;28;20197;-90
2022/05/10 00:37:57;;;;;;;1.17;0.70;;;11.80;99.90;;;;;;5039435;28;20205;-91
2022/05/10 00:40:30;;;;;;;1.63;0.63;;;11.70;99.90;;;;;;5037535;28;20212;-92
2022/05/10 00:43:09;;;;;;;1.57;0.50;;;11.70;99.90;;;;;;5019207;28;20202;-91
2022/05/10 00:45:47;;;;;;;2.13;0.60;;;11.70;99.90;;;;;;5025803;28;20209;-91
2022/05/10 00:48:27;;;;;;;1.10;0.43;;;11.70;99.90;;;;;;5039869;28;20286;-91
2022/05/10 00:51:04;;;;;;;2.67;0.70;;;11.60;99.90;;;;;;5041070;28;20197;-91
2022/05/10 00:53:50;;;;;;;1.73;0.60;;;11.70;99.90;;;;;;5048714;28;20240;-90
2022/05/10 00:56:31;;;;;;;2.33;0.73;;;11.80;99.90;;;;;;5054085;28;20276;-92
2022/05/10 00:59:09;;;;;;;0.87;0.50;;;11.80;99.90;;;;;;5041861;28;20259;-90
2022/05/10 01:01:43;;;;;;;2.60;0.70;;;11.70;99.90;;;;;;5042572;28;20233;-93
2022/05/10 01:04:25;;;;;;;1.43;0.80;;;11.80;99.90;;;;;;5041459;28;20205;-90
2022/05/10 01:07:02;;;;;;;0.93;0.67;;;11.80;99.90;;;;;;5043641;28;20271;-91
2022/05/10 01:09:44;;;;;;;1.13;0.70;;;11.90;99.90;;;;;;5038643;28;20280;-92
2022/05/10 01:12:20;;;;;;;1.03;0.93;;;12.10;99.90;;;;;;5030895;28;20285;-90
2022/05/10 01:14:57;;;;;;;3.97;0.80;;;13.00;99.90;;;;;;5028872;28;20271;-90
2022/05/10 01:17:28;;;;;;;1.80;0.70;;;13.80;99.90;;;;;;5035167;28;20189;-91
2022/05/10 01:20:00;;;;;;;1.23;0.70;;;13.90;99.90;;;;;;5026631;28;20284;-91
2022/05/10 01:22:56;;;;;;;0.80;0.77;;;13.80;99.90;;;;;;5226421;22;20245;-90
2022/05/10 01:25:56;;;;;;;0.77;0.60;;;13.60;99.90;;;;;;5021345;28;20206;-92
2022/05/10 01:28:35;;;;;;;0.77;0.60;;;13.80;99.90;;;;;;5020827;28;20345;-92
2022/05/10 01:31:10;;;;;;;1.33;0.70;;;14.90;99.90;;;;;;5024882;28;20245;-92
2022/05/10 01:33:44;;;;;;;3.03;0.47;;;15.70;99.90;;;;;;5021457;28;20256;-93
2022/05/10 01:36:30;;;;;;;1.60;0.40;;;15.70;99.90;;;;;;5021730;28;20234;-93
2022/05/10 01:42:11;;;;;;;2.33;0.70;;;16.00;99.90;;;;;;5035106;28;20206;-93
2022/05/10 01:45:10;;;;;;;1.00;0.60;;;17.00;99.90;;;;;;5034750;28;20205;-93
2022/05/10 01:47:58;;;;;;;0.70;0.50;;;16.90;99.90;;;;;;5011711;28;20214;-92
2022/05/10 01:50:39;;;;;;;1.57;0.60;;;17.20;99.90;;;;;;5010877;28;20229;-92
2022/05/10 01:53:17;;;;;;;0.90;0.50;;;16.90;99.90;;;;;;5008656;28;20265;-92
2022/05/10 01:55:52;;;;;;;0.87;0.57;;;15.90;99.90;;;;;;5008828;28;20206;-92
2022/05/10 02:04:26;;;;;;;0.70;0.50;;;13.90;99.90;;;;;;5042769;27;2986455;-91
2022/05/10 02:07:07;;;;;;;0.87;0.30;;;13.40;99.90;;;;;;5128564;28;20206;-91
2022/05/10 02:09:52;;;;;;;1.13;0.50;;;13.10;99.90;;;;;;5126384;28;20198;-91
2022/05/10 02:12:39;;;;;;;0.67;0.43;;;12.90;99.90;;;;;;5125606;28;20202;-91
2022/05/10 02:15:15;;;;;;;0.47;0.40;;;12.70;99.90;;;;;;5127741;28;20223;-91
2022/05/10 02:17:54;;;;;;;0.83;0.60;;;12.60;99.90;;;;;;5133346;28;20193;-92
2022/05/10 02:20:36;;;;;;;1.63;0.60;;;12.50;99.90;;;;;;5589751;22;20219;-92
2022/05/10 02:23:13;;;;;;;0.50;0.37;;;12.30;99.90;;;;;;5092609;28;20231;-90
2022/05/10 02:25:48;;;;;;;0.77;0.40;;;12.30;99.90;;;;;;5086847;28;20230;-91
2022/05/10 02:28:37;;;;;;;0.50;0.40;;;12.40;99.90;;;;;;5090164;28;20274;-92
2022/05/10 02:31:17;;;;;;;1.03;0.63;;;12.40;99.90;;;;;;5088922;28;20214;-92
2022/05/10 02:33:50;;;;;;;0.67;0.47;;;12.40;99.90;;;;;;5084904;28;20264;-91
2022/05/10 02:39:11;;;;;;;1.80;0.50;;;12.10;99.90;;;;;;5086535;28;20241;-91
2022/05/10 02:41:43;;;;;;;1.00;0.43;;;12.00;99.90;;;;;;5087402;28;20203;-91
2022/05/10 02:44:15;;;;;;;0.37;0.30;;;11.80;99.90;;;;;;5086562;28;20270;-91
2022/05/10 02:46:47;;;;;;;0.77;0.50;;;11.80;99.90;;;;;;5086134;28;20562;-91
2022/05/10 02:49:22;;;;;;;0.70;0.57;;;11.70;99.90;;;;;;5084255;28;20227;-90
2022/05/10 02:51:56;;;;;;;1.00;0.33;;;11.60;99.90;;;;;;5087067;28;20225;-91
2022/05/10 02:57:24;;;;;;;0.70;0.50;;;11.60;99.90;;;;;;5061143;28;20244;-92
2022/05/10 03:00:01;;;;;;;1.97;0.50;;;11.50;99.90;;;;;;5060173;28;20270;-92
2022/05/10 03:02:37;;;;;;;0.40;0.30;;;11.50;99.90;;;;;;5067153;28;20266;-92
2022/05/10 03:05:11;;;;;;;0.80;0.50;;;11.50;99.90;;;;;;5067902;28;20265;-92
2022/05/10 03:07:52;;;;;;;2.03;0.80;;;11.40;99.90;;;;;;5069878;28;20220;-92
2022/05/10 03:10:31;;;;;;;0.87;0.50;;;11.30;99.90;;;;;;5071538;28;20209;-92
2022/05/10 03:13:04;;;;;;;1.20;0.70;;;11.00;99.90;;;;;;5072810;28;20203;-90
2022/05/10 03:15:37;;;;;;;3.03;0.60;;;11.00;99.90;;;;;;5058314;28;20249;-90
2022/05/10 03:18:09;;;;;;;0.97;0.77;;;10.90;99.90;;;;;;5058993;28;20197;-92
2022/05/10 03:20:42;;;;;;;2.80;0.80;;;10.80;99.90;;;;;;5059551;28;20216;-91
2022/05/10 03:23:19;;;;;;;1.93;0.73;;;10.50;99.90;;;;;;5059831;28;20232;-91
2022/05/10 03:25:52;;;;;;;2.00;0.67;;;10.50;99.90;;;;;;5234102;22;20356;-92
2022/05/10 03:36:46;;;;;;;0.70;0.60;;;10.00;99.90;;;;;;5056788;28;20213;-91
2022/05/10 03:39:21;;;;;;;1.23;0.70;;;9.80;99.90;;;;;;5044396;28;20220;-91
2022/05/10 03:41:54;;;;;;;0.90;0.70;;;9.60;99.90;;;;;;5050724;28;20276;-91
2022/05/10 03:44:26;;;;;;;2.40;0.90;;;9.50;99.90;;;;;;5053320;28;20220;-91
2022/05/10 03:46:59;;;;;;;1.27;0.97;;;9.50;99.90;;;;;;5053001;28;20204;-91
2022/05/10 03:49:37;;;;;;;1.87;1.03;;;9.40;99.90;;;;;;5053806;28;20182;-90
2022/05/10 03:52:14;;;;;;;1.40;0.90;;;9.30;99.90;;;;;;5051350;28;20208;-92
2022/05/10 03:54:48;;;;;;;2.07;0.90;;;9.20;99.90;;;;;;5050701;28;20669;-91
2022/05/10 03:57:20;;;;;;;2.00;1.20;;;9.10;99.90;;;;;;5043579;28;20200;-91
2022/05/10 03:59:53;;;;;;;1.90;1.20;;;9.20;99.90;;;;;;5050577;28;20201;-92
2022/05/10 04:02:25;;;;;;;1.00;0.80;;;9.20;99.90;;;;;;5050169;28;20240;-91
2022/05/10 04:07:41;;;;;;;1.23;0.67;;;9.10;99.90;;;;;;5363376;22;20302;-91
2022/05/10 04:10:16;;;;;;;1.63;0.73;;;9.10;99.90;;;;;;5055875;28;20209;-92
2022/05/10 04:12:49;;;;;;;1.50;0.80;;;9.10;99.90;;;;;;5056067;28;20228;-89
2022/05/10 04:15:29;;;;;;;1.40;0.67;;;9.10;99.90;;;;;;5051066;28;20224;-91
2022/05/10 04:18:04;;;;;;;1.33;0.87;;;9.10;99.90;;;;;;5055202;28;20256;-91
2022/05/10 04:20:37;;;;;;;1.90;1.00;;;9.10;99.90;;;;;;5056927;28;20205;-91
2022/05/10 04:23:08;;;;;;;0.70;0.50;;;9.10;99.90;;;;;;5051198;28;20245;-91
2022/05/10 04:26:08;;;;;;;0.60;0.50;;;9.00;99.90;;;;;;5052500;28;20680;-92
2022/05/10 04:28:40;;;;;;;1.30;0.80;;;9.00;99.90;;;;;;5056205;28;20193;-91
2022/05/10 04:31:14;;;;;;;1.67;0.63;;;9.00;99.90;;;;;;5058680;28;20220;-91
2022/05/10 04:36:46;;;;;;;0.60;0.57;;;8.90;99.90;;;;;;5059153;28;20219;-91
2022/05/10 04:41:24;;;;;;;3.33;0.87;;;8.90;99.90;;;;;;5056723;28;20243;-91
2022/05/10 04:42:25;;;;;;;0.50;0.50;;;9.00;99.90;;;;;;5057809;28;20193;-92
2022/05/10 04:44:56;;;;;;;0.87;0.50;;;9.00;99.90;;;;;;5053373;28;20236;-92
2022/05/10 04:47:28;;;;;;;2.27;0.70;;;9.10;99.90;;;;;;5054982;28;20231;-94
2022/05/10 04:50:01;;;;;;;1.30;0.73;;;9.10;99.90;;;;;;5053580;28;20222;-92
2022/05/10 04:52:33;;;;;;;0.63;0.63;;;9.10;99.90;;;;;;5054898;28;20219;-91
2022/05/10 04:55:06;;;;;;;1.23;0.60;;;9.10;99.90;;;;;;5051960;28;20204;-91
2022/05/10 04:57:43;;;;;;;1.40;0.70;;;9.10;99.90;;;;;;5055863;28;20232;-92
2022/05/10 05:02:51;;;;;;;0.93;0.60;;;8.90;99.90;;;;;;5413306;22;20228;-92
2022/05/10 05:05:22;;;;;;;3.60;0.70;;;8.90;99.90;;;;;;5055448;28;20228;-92
2022/05/10 05:07:53;;;;;;;0.97;0.70;;;8.90;99.90;;;;;;5049481;28;20612;-91
2022/05/10 05:10:26;;;;;;;2.67;1.10;;;8.90;99.90;;;;;;5049065;28;20212;-90
2022/05/10 05:12:59;;;;;;;1.83;0.97;;;8.70;99.90;;;;;;5052029;28;20247;-92
2022/05/10 05:15:31;;;;;;;6.10;3.40;;;8.60;99.90;;;;;;5053484;28;20199;-90
2022/05/10 05:18:04;;;;;;;5.63;3.07;;;8.40;99.90;;;;;;5053122;28;20225;-89
2022/05/10 05:20:37;;;;;;;1.10;1.00;;;8.40;99.90;;;;;;5037279;28;20236;-90
2022/05/10 05:23:09;;;;;;;2.47;0.90;;;8.40;99.90;;;;;;5053407;28;20224;-91
2022/05/10 05:25:42;;;;;;;1.37;0.80;;;8.60;99.90;;;;;;5051033;28;20653;-91
2022/05/10 05:28:16;;;;;;;2.33;0.87;;;8.60;99.90;;;;;;5047488;28;20209;-91
2022/05/10 05:30:50;;;;;;;1.33;0.80;;;8.50;99.90;;;;;;5043277;28;20197;-91
2022/05/10 05:33:22;;;;;;;2.00;0.80;;;8.60;99.90;;;;;;5042805;28;20665;-90
2022/05/10 05:35:54;;;;;;;1.43;0.63;;;8.50;99.90;;;;;;5041281;28;20211;-92
2022/05/10 05:38:29;;;;;;;1.83;0.63;;;8.60;99.90;;;;;;5040350;28;20608;-92
2022/05/10 05:41:01;;;;;;;1.43;0.90;;;8.50;99.90;;;;;;5042543;28;20231;-92
2022/05/10 05:43:35;;;;;;;1.17;0.70;;;8.40;99.90;;;;;;5042212;28;20295;-92
2022/05/10 05:46:08;;;;;;;1.70;0.80;;;8.50;99.90;;;;;;5040366;28;20208;-91
2022/05/10 05:48:39;;;;;;;0.73;0.50;;;8.50;99.90;;;;;;5049713;28;20192;-90
2022/05/10 05:51:11;;;;;;;1.27;0.67;;;8.40;99.90;;;;;;5051714;28;20280;-90
2022/05/10 05:53:43;;;;;;;0.70;0.70;;;8.20;99.90;;;;;;5060466;22;20241;-91
2022/05/10 05:56:15;;;;;;;1.10;0.80;;;8.00;99.90;;;;;;5042183;28;20222;-91
2022/05/10 05:58:49;;;;;;;1.83;0.63;;;8.00;99.90;;;;;;5043313;28;20259;-90
2022/05/10 06:01:21;;;;;;;1.43;0.63;;;8.00;99.90;;;;;;5037458;28;20204;-91
2022/05/10 06:03:55;;;;;;;0.60;0.60;;;8.00;99.90;;;;;;5050718;28;20225;-90
2022/05/10 06:06:26;;;;;;;1.20;0.80;;;8.10;99.90;;;;;;5048882;28;20211;-90
2022/05/10 06:08:58;;;;;;;0.67;0.60;;;8.00;99.90;;;;;;5044347;28;20208;-90
2022/05/10 06:11:29;;;;;;;0.60;0.60;;;8.00;99.90;;;;;;5039288;28;20231;-90
2022/05/10 06:14:03;;;;;;;1.90;0.60;;;8.00;99.90;;;;;;5039694;28;20295;-90
2022/05/10 06:16:35;;;;;;;3.40;0.90;;;7.80;99.90;;;;;;5040749;28;20236;-90
2022/05/10 06:19:06;;;;;;;0.73;0.73;;;7.70;99.90;;;;;;5039946;28;20208;-90
2022/05/10 06:21:39;;;;;;;0.70;0.53;;;7.80;99.90;;;;;;5040829;28;20228;-90
2022/05/10 06:24:11;;;;;;;0.60;0.60;;;7.80;99.90;;;;;;5042037;28;20278;-90
2022/05/10 06:26:42;;;;;;;0.70;0.70;;;7.70;99.90;;;;;;5035297;28;20218;-90
2022/05/10 06:29:16;;;;;;;1.43;0.60;;;7.60;99.90;;;;;;5021988;28;20216;-90
2022/05/10 06:31:50;;;;;;;0.93;0.70;;;7.50;99.90;;;;;;5002944;28;20285;-90
2022/05/10 06:34:21;;;;;;;1.10;0.70;;;7.50;99.90;;;;;;5028168;28;20255;-91
2022/05/10 06:36:52;;;;;;;1.37;0.70;;;7.40;99.90;;;;;;5019737;28;20280;-90
2022/05/10 06:39:24;;;;;;;0.70;0.60;;;7.40;99.90;;;;;;5030313;28;20360;-90
2022/05/10 06:41:55;;;;;;;1.07;0.63;;;7.40;99.90;;;;;;5027727;28;20206;-90
2022/05/10 06:44:28;;;;;;;0.60;0.60;;;7.40;99.90;;;;;;5023645;28;20229;-89
2022/05/10 06:47:02;;;;;;;2.10;0.80;;;7.40;99.90;;;;;;5037993;28;20239;-90
2022/05/10 06:52:23;;;;;;;0.70;0.70;;;7.30;99.90;;;;;;5045194;28;20614;-91
2022/05/10 06:54:54;;;;;;;2.60;0.83;;;7.30;99.90;;;;;;5045760;28;20217;-91
2022/05/10 06:57:25;;;;;;;2.70;0.80;;;7.30;99.90;;;;;;5048034;28;20208;-91
2022/05/10 06:59:58;;;;;;;2.83;0.77;;;7.20;99.90;;;;;;5041692;28;20209;-90
2022/05/10 07:02:30;;;;;;;1.47;0.60;;;7.20;99.90;;;;;;5040874;28;20306;-90
2022/05/10 07:05:01;;;;;;;1.47;0.70;;;7.20;99.90;;;;;;5042393;28;20642;-91
2022/05/10 07:07:33;;;;;;;1.53;0.50;;;7.20;99.90;;;;;;5053232;28;20213;-90
2022/05/10 07:10:08;;;;;;;0.80;0.60;;;7.10;99.90;;;;;;5044940;28;20220;-88
2022/05/10 07:12:40;;;;;;;0.80;0.67;;;7.10;99.90;;;;;;5023382;28;20284;-89
2022/05/10 07:15:16;;;;;;;1.23;0.70;;;7.00;99.90;;;;;;5021899;28;20243;-89
2022/05/10 07:17:47;;;;;;;3.00;0.70;;;7.00;99.90;;;;;;5020369;28;20250;-89
2022/05/10 07:20:20;;;;;;;1.07;0.67;;;6.90;99.90;;;;;;5021561;28;20210;-90
2022/05/10 07:22:52;;;;;;;1.10;0.87;;;6.90;99.90;;;;;;5022581;28;20261;-89
2022/05/10 07:25:25;;;;;;;1.97;0.60;;;6.90;99.90;;;;;;5022534;28;20217;-90
2022/05/10 07:27:57;;;;;;;0.70;0.70;;;6.90;99.90;;;;;;5021524;28;20232;-89
2022/05/10 07:30:31;;;;;;;0.87;0.70;;;6.80;99.90;;;;;;5022163;28;20296;-90
2022/05/10 07:33:04;;;;;;;2.00;0.47;;;6.80;99.90;;;;;;5020990;28;20263;-89
2022/05/10 07:38:22;;;;;;;0.87;0.77;;;6.80;99.90;;;;;;5028414;28;20213;-90
2022/05/10 07:40:54;;;;;;;1.20;0.60;;;6.80;99.90;;;;;;5020432;28;20280;-90
2022/05/10 07:43:27;;;;;;;1.30;0.73;;;6.70;99.90;;;;;;5021105;28;20269;-90
2022/05/10 07:46:01;;;;;;;1.37;0.70;;;6.70;99.90;;;;;;5020321;28;20584;-90
2022/05/10 07:48:32;;;;;;;1.13;0.80;;;6.70;99.90;;;;;;5043220;28;20231;-90
2022/05/10 07:51:08;;;;;;;1.63;0.60;;;6.70;99.90;;;;;;5040981;28;20243;-91
2022/05/10 07:53:41;;;;;;;0.70;0.67;;;6.70;99.90;;;;;;5041369;28;20224;-90
2022/05/10 07:56:15;;;;;;;1.13;0.60;;;6.70;99.90;;;;;;5041949;28;20244;-90
2022/05/10 07:58:55;;;;;;;1.07;0.67;;;6.60;99.90;;;;;;5041532;28;20213;-90
2022/05/10 08:01:29;;;;;;;1.37;0.60;;;6.60;99.90;;;;;;5039423;28;20722;-90
2022/05/10 08:04:00;;;;;;;1.07;0.50;;;6.70;99.90;;;;;;5042237;28;20213;-91
2022/05/10 08:06:32;;;;;;;0.50;0.50;;;6.70;99.90;;;;;;5039041;28;20673;-90
2022/05/10 08:09:04;;;;;;;1.57;0.63;;;6.70;99.90;;;;;;5038505;28;20205;-90
2022/05/10 08:11:35;;;;;;;1.90;0.77;;;6.80;99.90;;;;;;5039418;28;20217;-90
2022/05/10 08:14:06;;;;;;;0.63;0.63;;;6.80;99.90;;;;;;5039558;28;20739;-91
2022/05/10 08:16:39;;;;;;;0.97;0.70;;;6.90;99.90;;;;;;5042105;28;20239;-91
2022/05/10 08:19:16;;;;;;;0.60;0.60;;;6.90;99.90;;;;;;5039467;28;20631;-90
2022/05/10 08:21:47;;;;;;;1.10;0.60;;;6.90;99.90;;;;;;5038810;28;20213;-91
2022/05/10 08:24:18;;;;;;;1.07;0.60;;;6.90;99.90;;;;;;5039078;28;20270;-91
2022/05/10 08:26:49;;;;;;;1.43;0.70;;;7.00;99.90;;;;;;5038812;28;20255;-91
2022/05/10 08:29:21;;;;;;;0.90;0.63;;;6.90;99.90;;;;;;5037539;28;20205;-91
2022/05/10 08:31:55;;;;;;;0.80;0.70;;;6.90;99.90;;;;;;5021927;28;20289;-90
2022/05/10 08:34:27;;;;;;;2.77;0.60;;;6.90;99.90;;;;;;5005956;28;20287;-91
2022/05/10 08:36:58;;;;;;;0.77;0.70;;;7.00;99.90;;;;;;5038594;28;20228;-90
2022/05/10 08:39:29;;;;;;;1.37;0.60;;;7.00;99.90;;;;;;5037716;28;20642;-90
2022/05/10 08:42:03;;;;;;;1.53;0.70;;;7.00;99.90;;;;;;5038971;28;20213;-90
2022/05/10 08:44:39;;;;;;;1.20;0.70;;;7.00;99.90;;;;;;5042254;28;20572;-91
2022/05/10 08:47:14;;;;;;;1.23;0.73;;;6.90;99.90;;;;;;5038938;28;20208;-91
2022/05/10 08:49:50;;;;;;;1.80;0.87;;;6.80;99.90;;;;;;5039555;28;20254;-91
2022/05/10 08:52:28;;;;;;;0.90;0.83;;;6.80;99.90;;;;;;5050328;28;20231;-91
2022/05/10 08:55:00;;;;;;;2.47;1.10;;;6.80;99.90;;;;;;5034089;28;20215;-91
2022/05/10 08:57:43;;;;;;;2.47;1.00;;;6.80;99.90;;;;;;5048262;28;20208;-90
2022/05/10 09:00:20;;;;;;;4.83;1.13;;;6.80;99.90;;;;;;5041840;28;20724;-91
2022/05/10 09:02:56;;;;;;;2.10;1.10;;;6.80;99.90;;;;;;5040561;28;20264;-91
2022/05/10 09:05:33;;;;;;;4.13;1.50;;;6.80;99.90;;;;;;5041259;28;20255;-90
2022/05/10 09:08:10;;;;;;;12.17;2.30;;;6.90;99.90;;;;;;5039540;28;20201;-91
2022/05/10 09:10:46;;;;;;;2.83;1.20;;;6.90;99.90;;;;;;5039847;28;20259;-90
2022/05/10 09:13:20;;;;;;;2.63;1.20;;;6.90;99.90;;;;;;5040917;28;20588;-91
2022/05/10 09:15:57;;;;;;;2.50;1.30;;;7.00;99.90;;;;;;5038286;28;20325;-93
2022/05/10 09:18:32;;;;;;;2.37;1.10;;;7.00;99.90;;;;;;5040037;28;20200;-91
2022/05/10 09:21:11;;;;;;;2.37;1.20;;;6.90;99.90;;;;;;5040842;28;20282;-90
2022/05/10 09:23:52;;;;;;;2.53;1.10;;;7.00;99.90;;;;;;5040375;28;20215;-90
2022/05/10 09:26:25;;;;;;;4.90;1.50;;;7.00;99.90;;;;;;5032334;28;20201;-90
2022/05/10 09:29:07;;;;;;;1.63;1.10;;;6.90;99.90;;;;;;5025079;28;20209;-90
2022/05/10 09:34:49;;;;;;;4.13;1.50;;;6.90;99.90;;;;;;5022319;28;20208;-90
2022/05/10 09:37:26;;;;;;;7.00;1.50;;;6.90;99.90;;;;;;5027300;28;20234;-95
2022/05/10 09:40:10;;;;;;;1.57;1.03;;;6.80;99.90;;;;;;5018999;28;20228;-90
2022/05/10 09:42:44;;;;;;;2.90;1.40;;;6.90;99.90;;;;;;5020712;28;20213;-90
2022/05/10 09:45:17;;;;;;;2.03;1.40;;;6.80;99.90;;;;;;5021813;28;20209;-91
2022/05/10 09:47:58;;;;;;;3.53;1.33;;;6.70;99.90;;;;;;5019111;28;20217;-91
2022/05/10 09:50:34;;;;;;;5.53;1.30;;;6.70;99.90;;;;;;5019938;28;20225;-91
2022/05/10 09:53:20;;;;;;;2.77;1.07;;;6.70;99.90;;;;;;5024542;28;20243;-91
2022/05/10 09:56:05;;;;;;;2.17;1.17;;;6.70;99.90;;;;;;5040992;28;20319;-91
2022/05/10 09:58:39;;;;;;;2.83;1.10;;;6.70;99.90;;;;;;5036233;28;20213;-90
2022/05/10 10:01:15;;;;;;;3.70;1.07;;;6.60;99.90;;;;;;5040114;28;20231;-91
2022/05/10 10:03:51;;;;;;;2.03;1.20;;;6.60;99.90;;;;;;5040153;28;20570;-91
2022/05/10 10:06:27;;;;;;;2.13;1.57;;;6.60;99.90;;;;;;5039303;28;20215;-91
2022/05/10 10:08:59;;;;;;;2.83;1.47;;;6.60;99.90;;;;;;5037569;28;20232;-91
2022/05/10 10:11:32;;;;;;;5.70;1.40;;;6.60;99.90;;;;;;5040885;28;20221;-91
2022/05/10 10:14:09;;;;;;;1.83;1.07;;;6.60;99.90;;;;;;5020370;28;20205;-91
2022/05/10 10:16:56;;;;;;;3.63;1.40;;;6.50;99.90;;;;;;5037064;28;20267;-91
2022/05/10 10:19:38;;;;;;;3.60;1.03;;;6.60;99.90;;;;;;5036161;28;20209;-91
2022/05/10 10:22:17;;;;;;;5.53;1.30;;;6.50;99.90;;;;;;5037135;28;20205;-92
2022/05/10 10:24:52;;;;;;;1.93;1.20;;;6.50;99.90;;;;;;5038933;28;20205;-91
2022/05/10 10:27:33;;;;;;;2.27;0.97;;;6.50;99.90;;;;;;5040229;28;20208;-94
2022/05/10 10:30:11;;;;;;;2.80;1.20;;;6.50;99.90;;;;;;5040943;28;20227;-91
2022/05/10 10:32:48;;;;;;;3.27;1.23;;;6.50;99.90;;;;;;5042849;28;20243;-90
2022/05/10 10:35:36;;;;;;;2.43;1.20;;;6.50;99.90;;;;;;5043759;28;20201;-91
2022/05/10 10:38:17;;;;;;;3.20;1.23;;;6.50;99.90;;;;;;5046120;28;20228;-90
2022/05/10 10:40:56;;;;;;;6.93;1.33;;;6.50;99.90;;;;;;5045731;28;20208;-90
2022/05/10 10:43:33;;;;;;;4.90;1.30;;;6.50;99.90;;;;;;5045846;28;20200;-90
2022/05/10 10:46:18;;;;;;;4.77;1.10;;;6.40;99.90;;;;;;5031601;28;20235;-91
2022/05/10 10:48:54;;;;;;;1.50;0.97;;;6.40;99.90;;;;;;5041065;28;20205;-92
2022/05/10 10:51:31;;;;;;;5.13;1.10;;;6.30;99.90;;;;;;5040842;28;20204;-91
2022/05/10 10:54:06;;;;;;;5.87;1.00;;;6.30;99.90;;;;;;5045142;28;20216;-92
2022/05/10 10:57:04;;;;;;;1.53;0.90;;;6.30;99.90;;;;;;5058692;28;20216;-91
2022/05/10 10:59:53;;;;;;;5.10;1.30;;;6.30;99.90;;;;;;5041403;28;20199;-91
2022/05/10 11:02:51;;;;;;;1.77;1.53;;;6.20;99.90;;;;;;5046150;28;20205;-91
2022/05/10 11:05:42;;;;;;;2.10;1.10;;;6.30;99.90;;;;;;5047904;28;20205;-91
2022/05/10 11:08:24;;;;;;;4.43;1.30;;;6.30;99.90;;;;;;5027525;28;20277;-91
2022/05/10 11:11:06;;;;;;;4.10;1.20;;;6.20;99.90;;;;;;5042672;28;20223;-91
2022/05/10 11:13:45;;;;;;;5.67;1.43;;;6.30;99.90;;;;;;5043909;28;20205;-90
2022/05/10 11:16:35;;;;;;;1.20;1.00;;;6.30;99.90;;;;;;5043943;28;20235;-92
2022/05/10 11:19:31;;;;;;;2.87;1.40;;;6.40;99.90;;;;;;5048411;28;20209;-91
2022/05/10 11:22:11;;;;;;;2.70;1.13;;;6.40;99.90;;;;;;5054889;28;20229;-90
2022/05/10 11:24:53;;;;;;;5.03;0.83;;;6.40;99.90;;;;;;5038149;28;20208;-90
2022/05/10 11:27:39;;;;;;;2.27;1.00;;;6.50;99.90;;;;;;5050014;28;20226;-92
2022/05/10 11:30:14;;;;;;;2.73;1.07;;;6.50;99.90;;;;;;5024715;28;20275;-91
2022/05/10 11:33:00;;;;;;;2.83;1.20;;;6.50;99.90;;;;;;5040677;28;20205;-90
2022/05/10 11:35:57;;;;;;;4.77;1.10;;;6.50;99.90;;;;;;5020343;28;20797;-91
2022/05/10 11:39:02;;;;;;;4.43;1.80;;;6.50;99.90;;;;;;5003064;28;20258;-91
2022/05/10 11:41:40;;;;;;;1.90;1.07;;;6.50;99.90;;;;;;5010784;28;20252;-91
2022/05/10 11:44:44;;;;;;;2.43;1.30;;;6.50;99.90;;;;;;5021130;28;20206;-91
2022/05/10 11:47:42;;;;;;;4.27;1.20;;;6.50;99.90;;;;;;5011165;28;20201;-91
2022/05/10 11:50:38;;;;;;;4.47;1.13;;;6.60;99.90;;;;;;5019551;28;20216;-91
2022/05/10 11:53:33;;;;;;;3.63;1.37;;;6.50;99.90;;;;;;5019268;28;20259;-91
2022/05/10 11:56:05;;;;;;;4.40;1.70;;;6.60;99.90;;;;;;5023319;28;20209;-91
2022/05/10 11:58:38;;;;;;;4.10;1.33;;;6.50;99.90;;;;;;5019384;28;20713;-91
2022/05/10 12:01:36;;;;;;;2.77;1.07;;;6.50;99.90;;;;;;5019056;28;20216;-92
2022/05/10 12:04:08;;;;;;;1.53;0.90;;;6.40;99.90;;;;;;5019168;28;20205;-92
2022/05/10 12:06:47;;;;;;;4.07;1.30;;;6.40;99.90;;;;;;5036525;28;20216;-91
2022/05/10 12:10:01;;;;;;;1.53;1.00;;;6.30;99.90;;;;;;5004879;28;20201;-90
2022/05/10 12:13:00;;;;;;;2.80;1.10;;;6.30;99.90;;;;;;5001052;28;20221;-89
2022/05/10 12:21:57;;;;;;;2.37;1.40;;;6.20;99.90;;;;;;4683496;28;10001430;-90
2022/05/10 12:24:35;;;;;;;4.00;1.60;;;6.10;99.90;;;;;;5019274;28;20213;-90
2022/05/10 12:27:37;;;;;;;3.83;1.97;;;6.10;99.90;;;;;;5022789;28;20213;-90
2022/05/10 12:30:31;;;;;;;1.43;1.00;;;6.10;99.90;;;;;;5019956;28;20201;-91
2022/05/10 12:33:35;;;;;;;3.00;1.07;;;6.00;99.90;;;;;;5020010;28;20225;-90
2022/05/10 12:36:11;;;;;;;2.40;1.07;;;6.00;99.90;;;;;;5027258;28;20266;-89
2022/05/10 12:38:49;;;;;;;3.43;0.90;;;6.00;99.90;;;;;;5017739;28;20261;-90
2022/05/10 12:41:52;;;;;;;4.40;1.20;;;6.00;99.90;;;;;;5020970;28;20219;-88
2022/05/10 12:44:37;;;;;;;2.07;0.90;;;6.00;99.90;;;;;;5019108;28;20209;-89
2022/05/10 12:47:29;;;;;;;4.47;0.90;;;6.00;99.90;;;;;;5035980;28;20284;-89
2022/05/10 12:50:16;;;;;;;2.60;1.00;;;6.00;99.90;;;;;;5026844;28;20296;-90
2022/05/10 12:52:48;;;;;;;2.43;1.27;;;6.20;99.90;;;;;;5038620;28;20626;-90
2022/05/10 12:55:22;;;;;;;3.30;0.87;;;6.20;99.90;;;;;;5038143;28;20225;-90
2022/05/10 12:57:59;;;;;;;3.67;1.13;;;6.20;99.90;;;;;;5036663;28;20263;-90
2022/05/10 13:00:39;;;;;;;3.03;1.10;;;6.20;99.90;;;;;;5041846;28;20224;-90
2022/05/10 13:03:14;;;;;;;4.57;0.97;;;6.20;99.90;;;;;;5039948;28;20216;-89
2022/05/10 13:06:06;;;;;;;3.33;1.37;;;6.20;99.90;;;;;;5039858;28;20208;-91
2022/05/10 13:09:32;;;;;;;2.60;1.00;;;6.30;99.90;;;;;;5052734;28;20204;-90
2022/05/10 13:12:09;;;;;;;3.73;0.93;;;6.40;99.90;;;;;;5047530;28;20220;-90
2022/05/10 13:14:45;;;;;;;3.40;1.10;;;6.50;99.90;;;;;;5038445;28;20205;-90
2022/05/10 13:17:24;;;;;;;2.43;1.00;;;6.50;99.90;;;;;;5037869;28;20214;-91
2022/05/10 13:19:57;;;;;;;2.23;1.10;;;6.50;99.90;;;;;;5037626;28;20285;-90
2022/05/10 13:22:31;;;;;;;1.63;1.00;;;6.50;99.90;;;;;;5037647;28;20205;-90
2022/05/10 13:25:06;;;;;;;1.20;1.10;;;6.50;99.90;;;;;;5038074;28;20205;-90
2022/05/10 13:27:42;;;;;;;8.83;1.40;;;6.50;99.90;;;;;;5021273;28;20208;-91
2022/05/10 13:30:17;;;;;;;5.73;1.10;;;6.50;99.90;;;;;;5040344;28;20247;-90
2022/05/10 13:32:52;;;;;;;8.33;1.23;;;6.50;99.90;;;;;;5039984;28;20259;-90
2022/05/10 13:35:26;;;;;;;2.07;1.20;;;6.50;99.90;;;;;;5001046;28;20689;-91
2022/05/10 13:38:03;;;;;;;4.27;1.20;;;6.60;99.90;;;;;;5026541;28;20237;-90
2022/05/10 13:40:39;;;;;;;3.17;1.17;;;6.60;99.90;;;;;;5039127;28;20204;-90
2022/05/10 13:43:14;;;;;;;2.27;0.90;;;6.70;99.90;;;;;;5038228;28;20582;-90
2022/05/10 13:45:51;;;;;;;4.20;1.10;;;6.60;99.90;;;;;;5037527;28;20235;-90
2022/05/10 13:48:30;;;;;;;1.53;0.97;;;6.60;99.90;;;;;;5036862;28;20216;-89
2022/05/10 13:51:09;;;;;;;4.17;1.03;;;6.60;99.90;;;;;;5036797;28;20272;-90
2022/05/10 13:53:42;;;;;;;2.73;1.30;;;6.60;99.90;;;;;;5037115;28;20213;-88
2022/05/10 13:56:14;;;;;;;4.70;0.97;;;6.70;99.90;;;;;;5037284;28;20292;-90
2022/05/10 13:58:47;;;;;;;2.60;0.90;;;6.90;99.90;;;;;;5036136;28;20611;-90
2022/05/10 14:01:35;;;;;;;3.33;0.93;;;6.90;99.90;;;;;;5036842;28;20265;-90
2022/05/10 14:04:10;;;;;;;5.43;1.10;;;6.90;99.90;;;;;;5037409;28;20216;-90
2022/05/10 14:06:45;;;;;;;2.80;1.50;;;6.90;99.90;;;;;;5036932;28;20229;-90
2022/05/10 14:09:24;;;;;;;6.27;1.33;;;6.90;99.90;;;;;;5036682;28;20314;-90
2022/05/10 14:11:59;;;;;;;5.10;1.00;;;6.90;99.90;;;;;;5039556;28;20207;-90
2022/05/10 14:14:34;;;;;;;4.27;1.10;;;7.00;99.90;;;;;;5043735;28;20203;-90
2022/05/10 14:17:07;;;;;;;3.80;1.03;;;7.10;99.90;;;;;;5038041;28;20220;-90
2022/05/10 14:19:42;;;;;;;3.23;1.10;;;7.00;99.90;;;;;;5037607;28;20225;-90
2022/05/10 14:22:19;;;;;;;7.40;1.23;;;7.10;99.90;;;;;;5037830;28;20209;-89
2022/05/10 14:24:54;;;;;;;2.47;1.03;;;7.20;99.90;;;;;;5043448;28;20212;-90
2022/05/10 14:27:30;;;;;;;3.60;1.17;;;7.20;99.90;;;;;;5039076;28;20247;-89
2022/05/10 14:30:04;;;;;;;5.27;1.43;;;7.40;99.90;;;;;;5049384;28;20220;-89
2022/05/10 14:32:39;;;;;;;2.80;1.00;;;7.40;99.90;;;;;;5055100;28;20196;-90
2022/05/10 14:48:58;;;;;;;2.20;1.20;;;7.80;99.90;;;;;;5050305;28;20245;-91